createdAt,value
2022-12-09T00:01:30.993Z,10.20
2022-12-09T00:04:00.618Z,10.54
2022-12-09T00:06:31.021Z,10.31
2022-12-09T00:08:59.747Z,10.41
2022-12-09T00:11:32.475Z,10.45
2022-12-09T00:14:01.521Z,10.07
2022-12-09T00:16:31.122Z,10.06
2022-12-09T00:18:59.782Z,10.09
2022-12-09T00:21:34.202Z,10.05
2022-12-09T00:24:07.457Z,10.61
2022-12-09T00:26:36.328Z,10.04
2022-12-09T00:29:06.349Z,10.21
2022-12-09T00:31:37.563Z,10.57
2022-12-09T00:34:12.011Z,10.50
2022-12-09T00:36:41.000Z,10.28
2022-12-09T00:39:13.268Z,10.28
2022-12-09T00:41:46.105Z,10.17
2022-12-09T00:44:17.196Z,10.34
2022-12-09T00:46:45.390Z,10.34
2022-12-09T00:49:19.517Z,10.68
2022-12-09T00:51:49.388Z,10.54
2022-12-09T00:54:19.309Z,10.48
2022-12-09T00:56:48.266Z,10.39
2022-12-09T00:59:17.571Z,10.29
2022-12-09T01:01:47.399Z,10.61
2022-12-09T01:04:20.017Z,10.60
2022-12-09T01:06:52.504Z,10.51
2022-12-09T01:09:23.733Z,10.33
2022-12-09T01:11:54.884Z,10.37
2022-12-09T01:14:24.321Z,10.14
2022-12-09T01:16:53.546Z,10.19
2022-12-09T01:19:22.467Z,10.53
2022-12-09T01:21:55.696Z,10.54
2022-12-09T01:24:26.631Z,10.56
2022-12-09T01:26:54.246Z,10.55
2022-12-09T01:29:24.556Z,10.53
2022-12-09T01:31:55.515Z,10.25
2022-12-09T01:34:28.264Z,10.65
2022-12-09T01:36:57.398Z,10.67
2022-12-09T01:39:25.245Z,10.61
2022-12-09T01:41:54.866Z,10.74
2022-12-09T01:44:25.556Z,10.75
2022-12-09T01:46:59.362Z,10.59
2022-12-09T01:49:43.171Z,10.44
2022-12-09T01:52:18.017Z,10.56
2022-12-09T01:54:52.832Z,10.58
2022-12-09T01:57:22.339Z,10.51
2022-12-09T01:59:53.305Z,10.64
2022-12-09T02:02:24.944Z,10.62
2022-12-09T02:04:55.929Z,10.51
2022-12-09T02:07:25.126Z,10.66
2022-12-09T02:09:55.585Z,10.85
2022-12-09T02:12:40.983Z,10.80
2022-12-09T02:15:41.872Z,10.61
2022-12-09T02:18:47.686Z,10.74
2022-12-09T02:21:23.423Z,10.51
2022-12-09T02:24:41.331Z,10.18
2022-12-09T02:27:17.727Z,10.33
2022-12-09T02:30:04.069Z,10.23
2022-12-09T02:33:24.893Z,10.25
2022-12-09T02:36:08.203Z,10.05
2022-12-09T02:38:43.041Z,10.16
2022-12-09T02:41:25.017Z,10.21
2022-12-09T02:44:19.965Z,10.12
2022-12-09T02:46:51.095Z,10.06
2022-12-09T02:49:22.913Z,10.21
2022-12-09T02:51:54.452Z,10.32
2022-12-09T02:54:29.436Z,10.26
2022-12-09T02:57:05.247Z,10.33
2022-12-09T02:59:33.207Z,10.34
2022-12-09T03:02:27.140Z,10.23
2022-12-09T03:05:45.684Z,10.74
2022-12-09T03:08:44.942Z,10.34
2022-12-09T03:11:18.136Z,11.00
2022-12-09T03:14:04.958Z,10.81
2022-12-09T03:17:00.200Z,10.64
2022-12-09T03:19:45.306Z,10.67
2022-12-09T03:22:17.975Z,10.63
2022-12-09T03:25:10.373Z,10.76
2022-12-09T03:27:54.796Z,10.90
2022-12-09T03:30:23.969Z,10.57
2022-12-09T03:32:55.605Z,10.41
2022-12-09T03:35:32.491Z,10.73
2022-12-09T03:38:05.659Z,10.78
2022-12-09T03:40:36.475Z,10.67
2022-12-09T03:43:11.081Z,11.02
2022-12-09T03:45:41.856Z,10.86
2022-12-09T03:48:12.197Z,11.01
2022-12-09T03:51:05.872Z,10.93
2022-12-09T03:53:43.615Z,11.18
2022-12-09T03:56:22.474Z,11.07
2022-12-09T03:58:55.986Z,11.11
2022-12-09T04:01:27.460Z,10.90
2022-12-09T04:03:57.318Z,11.04
2022-12-09T04:06:26.620Z,11.13
2022-12-09T04:09:00.716Z,11.28
2022-12-09T04:11:34.350Z,11.02
2022-12-09T04:14:03.726Z,11.28
2022-12-09T04:16:33.123Z,10.92
2022-12-09T04:19:02.299Z,10.89
2022-12-09T04:21:31.821Z,10.60
2022-12-09T04:24:00.334Z,10.43
2022-12-09T04:26:34.248Z,10.83
2022-12-09T04:29:03.786Z,10.49
2022-12-09T07:49:42.183Z,5.59
2022-12-09T07:52:13.308Z,5.53
2022-12-09T07:54:42.867Z,5.59
2022-12-09T16:35:43.193Z,5.30
2022-12-09T16:38:18.476Z,5.43
2022-12-09T16:41:06.317Z,5.34
2022-12-09T16:43:36.560Z,5.49
2022-12-09T16:46:17.577Z,5.39
2022-12-09T16:48:50.360Z,5.40
2022-12-09T16:51:27.167Z,5.49
2022-12-09T16:53:59.027Z,5.49
2022-12-09T16:56:35.988Z,5.43
2022-12-09T16:59:10.447Z,5.48
2022-12-09T17:01:42.333Z,5.39
2022-12-09T17:04:19.766Z,5.38
2022-12-09T17:06:49.294Z,5.45
2022-12-09T17:09:19.315Z,5.51
2022-12-09T17:11:49.219Z,5.45
2022-12-09T17:14:19.924Z,5.52
2022-12-09T17:16:51.691Z,5.57
2022-12-09T17:19:22.879Z,5.60
2022-12-09T17:21:52.725Z,5.55
2022-12-09T17:24:23.488Z,5.64
2022-12-09T17:26:52.109Z,5.77
2022-12-09T17:29:22.570Z,5.74
2022-12-09T17:31:53.049Z,5.80
2022-12-09T17:34:21.167Z,5.79
2022-12-09T17:36:59.480Z,5.82
2022-12-09T17:39:33.264Z,5.91
2022-12-09T17:42:02.939Z,5.97
2022-12-09T17:44:36.960Z,5.93
2022-12-09T17:47:07.490Z,5.91
2022-12-09T17:49:37.136Z,5.91
2022-12-09T17:52:06.452Z,6.05
2022-12-09T17:54:35.201Z,5.84
2022-12-09T17:57:05.271Z,5.90
2022-12-09T17:59:34.510Z,5.99
2022-12-09T18:02:04.814Z,5.99
2022-12-09T18:04:34.969Z,6.19
2022-12-09T18:07:06.326Z,6.32
2022-12-09T18:09:35.395Z,6.32
2022-12-09T18:12:04.512Z,6.31
2022-12-09T18:14:36.375Z,6.34
2022-12-09T18:17:05.596Z,6.35
2022-12-09T18:19:35.500Z,6.30
2022-12-09T18:22:05.625Z,6.30
2022-12-09T18:24:34.047Z,6.40
2022-12-09T18:27:04.143Z,6.40
2022-12-09T18:29:36.580Z,6.28
2022-12-09T18:32:07.413Z,6.20
2022-12-09T18:34:36.841Z,6.14
2022-12-09T18:37:05.172Z,6.12
2022-12-09T18:39:33.147Z,6.08
2022-12-09T18:42:02.251Z,6.21
2022-12-09T18:44:31.060Z,6.10
2022-12-09T18:47:00.468Z,6.02
2022-12-09T18:49:30.272Z,6.07
2022-12-09T18:52:00.521Z,6.05
2022-12-09T18:54:33.122Z,5.98
2022-12-09T18:57:04.176Z,6.12
2022-12-09T18:59:34.796Z,6.08
2022-12-09T19:02:03.084Z,5.90
2022-12-09T19:04:33.032Z,6.02
2022-12-09T19:07:02.932Z,5.90
2022-12-09T19:09:35.096Z,5.82
2022-12-09T19:12:38.401Z,5.77
2022-12-09T19:14:55.613Z,5.76
2022-12-09T19:17:25.638Z,5.87
2022-12-09T19:19:55.122Z,5.66
2022-12-09T19:22:28.270Z,5.75
2022-12-09T19:24:58.077Z,5.92
2022-12-09T19:27:26.403Z,5.75
2022-12-09T19:29:55.696Z,5.76
2022-12-09T19:32:52.021Z,5.73
2022-12-09T19:35:13.150Z,5.80
2022-12-09T19:37:42.387Z,5.89
2022-12-09T19:40:14.441Z,5.93
2022-12-09T19:42:43.730Z,5.78
2022-12-09T19:45:14.467Z,5.85
2022-12-09T19:47:43.071Z,5.80
2022-12-09T19:50:12.519Z,6.06
2022-12-09T19:52:45.332Z,6.08
2022-12-09T19:55:14.220Z,6.02
2022-12-09T19:57:43.350Z,6.16
2022-12-09T20:00:12.901Z,6.08
2022-12-09T20:02:42.415Z,6.19
2022-12-09T20:05:11.321Z,6.14
2022-12-09T20:07:40.128Z,6.06
2022-12-09T20:10:10.292Z,6.17
2022-12-09T20:12:54.104Z,6.06
2022-12-09T20:15:23.159Z,6.02
2022-12-09T20:17:51.530Z,6.02
2022-12-09T20:20:20.266Z,5.94
2022-12-09T20:22:48.983Z,5.96
2022-12-09T20:25:18.439Z,6.10
2022-12-09T20:27:48.027Z,6.10
2022-12-09T20:30:17.973Z,6.20
2022-12-09T20:32:48.724Z,6.16
2022-12-09T20:35:18.205Z,6.21
2022-12-09T20:37:47.103Z,6.25
2022-12-09T20:40:15.047Z,6.14
2022-12-09T20:42:44.194Z,6.13
2022-12-09T20:45:13.018Z,6.14
2022-12-09T20:47:42.235Z,6.18
2022-12-09T20:50:10.661Z,6.38
2022-12-09T20:52:40.152Z,5.99
2022-12-09T20:55:08.474Z,6.13
2022-12-09T20:57:38.734Z,6.28
2022-12-09T21:00:08.781Z,6.26
2022-12-09T21:02:40.245Z,6.37
2022-12-09T21:05:12.104Z,6.79
2022-12-09T21:07:41.143Z,6.38
2022-12-09T21:10:10.782Z,6.48
2022-12-09T21:12:41.135Z,6.51
2022-12-09T21:15:11.920Z,6.48
2022-12-09T21:17:43.161Z,6.50
2022-12-09T21:20:13.553Z,6.43
2022-12-09T21:22:41.993Z,6.49
2022-12-09T21:25:11.228Z,6.51
2022-12-09T21:27:40.778Z,6.59
2022-12-09T21:30:10.108Z,6.44
2022-12-09T21:32:39.625Z,6.39
2022-12-09T21:35:09.402Z,6.38
2022-12-09T21:37:38.511Z,6.48
2022-12-09T21:40:08.387Z,6.25
2022-12-09T21:42:38.723Z,6.41
2022-12-09T21:45:07.540Z,6.51
2022-12-09T21:47:36.066Z,6.64
2022-12-09T21:50:06.867Z,6.58
2022-12-09T21:52:37.955Z,6.54
2022-12-09T21:55:09.016Z,6.70
2022-12-09T21:57:38.037Z,6.63
2022-12-09T22:00:09.303Z,6.75
2022-12-09T22:02:38.694Z,6.72
2022-12-09T22:05:08.858Z,6.91
2022-12-09T22:07:37.959Z,6.64
2022-12-09T22:10:07.913Z,6.77
2022-12-09T22:12:37.576Z,6.80
2022-12-09T22:15:07.425Z,6.64
2022-12-09T22:17:36.979Z,6.62
2022-12-09T22:20:44.466Z,6.72
2022-12-09T22:22:59.462Z,6.76
2022-12-09T22:25:27.993Z,6.77
2022-12-09T22:27:55.973Z,6.91
